createdAt,value
2019-02-07T00:00:59.805Z,33.25
2019-02-07T00:02:05.018Z,32.08
2019-02-07T00:03:09.946Z,32.95
2019-02-07T00:04:14.777Z,32.15
2019-02-07T00:05:19.933Z,32.90
2019-02-07T00:06:24.922Z,32.00
2019-02-07T00:07:29.860Z,32.45
2019-02-07T00:08:34.893Z,30.92
2019-02-07T00:09:39.816Z,32.70
2019-02-07T00:10:44.887Z,31.12
2019-02-07T00:11:49.780Z,30.10
2019-02-07T00:12:54.680Z,32.30
2019-02-07T00:13:59.586Z,31.87
2019-02-07T00:15:05.991Z,32.55
2019-02-07T00:16:11.119Z,30.57
2019-02-07T00:17:16.380Z,30.35
2019-02-07T00:18:21.481Z,30.37
2019-02-07T00:19:26.293Z,30.17
2019-02-07T00:20:31.417Z,31.95
2019-02-07T00:21:36.327Z,31.40
2019-02-07T00:22:41.162Z,32.17
2019-02-07T00:23:46.033Z,31.60
2019-02-07T00:24:50.852Z,32.40
2019-02-07T00:25:56.076Z,31.73
2019-02-07T00:27:00.987Z,31.62
2019-02-07T00:28:06.041Z,32.20
2019-02-07T00:29:10.968Z,31.05
2019-02-07T00:30:17.000Z,31.82
2019-02-07T00:31:21.863Z,32.98
2019-02-07T00:32:26.657Z,33.55
2019-02-07T00:33:31.449Z,32.42
2019-02-07T00:34:36.604Z,32.35
2019-02-07T00:35:41.680Z,31.50
2019-02-07T00:36:47.120Z,32.95
2019-02-07T00:38:08.097Z,32.50
2019-02-07T00:39:22.227Z,29.87
2019-02-07T00:40:27.223Z,31.40
2019-02-07T00:41:55.256Z,32.98
2019-02-07T00:43:00.016Z,31.70
2019-02-07T00:44:04.989Z,32.90
2019-02-07T00:45:12.132Z,32.42
2019-02-07T00:46:17.004Z,31.97
2019-02-07T00:47:21.876Z,33.05
2019-02-07T00:48:26.720Z,31.07
2019-02-07T00:49:31.607Z,31.73
2019-02-07T00:50:36.976Z,31.93
2019-02-07T00:51:42.078Z,31.52
2019-02-07T00:52:47.201Z,31.27
2019-02-07T00:53:52.077Z,33.28
2019-02-07T00:54:57.061Z,33.85
2019-02-07T00:56:01.864Z,32.75
2019-02-07T00:57:07.961Z,33.20
2019-02-07T00:58:12.943Z,33.05
2019-02-07T00:59:17.839Z,32.93
2019-02-07T01:00:24.072Z,32.03
2019-02-07T01:01:29.139Z,31.70
2019-02-07T01:02:33.968Z,31.45
2019-02-07T01:03:38.868Z,32.67
2019-02-07T01:04:43.876Z,32.38
2019-02-07T01:05:49.110Z,32.50
2019-02-07T01:06:54.023Z,32.28
2019-02-07T01:07:58.912Z,31.68
2019-02-07T01:09:05.647Z,31.25
2019-02-07T01:10:12.085Z,32.15
2019-02-07T01:11:16.963Z,32.08
2019-02-07T01:12:22.449Z,32.88
2019-02-07T01:13:27.798Z,31.10
2019-02-07T01:14:32.600Z,32.65
2019-02-07T01:15:37.340Z,33.30
2019-02-07T01:16:42.428Z,33.35
2019-02-07T01:17:47.372Z,33.20
2019-02-07T01:18:52.135Z,32.78
2019-02-07T01:19:57.013Z,32.70
2019-02-07T01:21:01.891Z,32.83
2019-02-07T01:22:07.075Z,33.48
2019-02-07T01:23:11.838Z,33.90
2019-02-07T01:24:16.752Z,32.78
2019-02-07T01:25:21.949Z,32.08
2019-02-07T01:26:26.862Z,32.15
2019-02-07T01:27:31.621Z,32.15
2019-02-07T01:28:36.645Z,32.75
2019-02-07T01:29:41.628Z,33.15
2019-02-07T01:30:46.812Z,31.80
2019-02-07T01:31:51.991Z,31.12
2019-02-07T01:32:57.119Z,34.83
2019-02-07T01:34:02.009Z,35.45
2019-02-07T01:35:07.139Z,32.33
2019-02-07T01:36:12.428Z,31.73
2019-02-07T01:37:17.364Z,33.42
2019-02-07T01:38:22.217Z,31.40
2019-02-07T01:39:27.076Z,32.00
2019-02-07T01:40:31.944Z,32.98
2019-02-07T01:41:36.840Z,33.30
2019-02-07T01:42:41.611Z,31.00
2019-02-07T01:43:46.475Z,32.65
2019-02-07T01:44:51.317Z,34.25
2019-02-07T01:45:56.227Z,33.73
2019-02-07T01:47:00.972Z,32.60
2019-02-07T01:48:05.957Z,31.50
2019-02-07T01:49:11.119Z,32.35
2019-02-07T01:50:17.952Z,33.05
2019-02-07T01:51:23.252Z,31.33
2019-02-07T01:52:28.132Z,32.38
2019-02-07T01:53:32.985Z,32.48
2019-02-07T01:54:37.848Z,34.43
2019-02-07T01:55:42.840Z,32.70
2019-02-07T01:56:47.647Z,32.23
2019-02-07T01:57:52.579Z,33.83
2019-02-07T01:58:57.364Z,32.78
2019-02-07T02:00:02.194Z,32.08
2019-02-07T02:01:08.081Z,33.63
2019-02-07T02:02:12.838Z,32.53
2019-02-07T02:03:17.600Z,34.60
2019-02-07T02:04:22.481Z,32.17
2019-02-07T02:05:27.352Z,33.00
2019-02-07T02:06:32.280Z,34.95
2019-02-07T02:07:37.048Z,32.90
2019-02-07T02:08:42.211Z,34.10
2019-02-07T02:09:47.361Z,33.35
2019-02-07T02:10:52.117Z,32.38
2019-02-07T02:11:57.128Z,33.20
2019-02-07T02:13:02.004Z,33.70
2019-02-07T02:14:08.043Z,33.25
2019-02-07T02:15:23.706Z,34.58
2019-02-07T02:16:19.728Z,35.63
2019-02-07T02:17:24.600Z,33.90
2019-02-07T02:18:29.332Z,33.98
2019-02-07T02:19:34.136Z,32.88
2019-02-07T02:20:39.053Z,33.90
2019-02-07T02:21:43.940Z,33.55
2019-02-07T02:22:48.808Z,32.88
2019-02-07T02:23:53.696Z,33.75
2019-02-07T02:24:58.591Z,33.50
2019-02-07T02:26:03.444Z,34.75
2019-02-07T02:27:08.411Z,34.38
2019-02-07T02:28:13.585Z,33.80
2019-02-07T02:29:19.147Z,33.85
2019-02-07T02:30:26.239Z,33.60
2019-02-07T02:31:31.087Z,33.75
2019-02-07T02:32:35.953Z,36.15
2019-02-07T02:33:40.862Z,35.10
2019-02-07T02:34:45.753Z,34.43
2019-02-07T02:35:50.528Z,33.70
2019-02-07T02:36:55.492Z,34.40
2019-02-07T02:38:00.229Z,33.45
2019-02-07T02:39:08.127Z,34.00
2019-02-07T02:40:13.361Z,32.63
2019-02-07T02:41:18.100Z,33.25
2019-02-07T02:42:22.961Z,34.73
2019-02-07T02:43:27.842Z,34.70
2019-02-07T02:44:33.795Z,33.35
2019-02-07T02:45:38.744Z,34.00
2019-02-07T02:46:43.641Z,33.48
2019-02-07T02:47:48.557Z,33.18
2019-02-07T02:48:53.912Z,34.25
2019-02-07T02:49:58.798Z,35.10
2019-02-07T02:51:03.666Z,34.70
2019-02-07T02:52:08.556Z,35.00
2019-02-07T02:53:13.310Z,35.00
2019-02-07T02:54:36.762Z,34.53
2019-02-07T02:55:43.553Z,35.15
2019-02-07T02:56:48.449Z,34.38
2019-02-07T02:57:53.308Z,36.25
2019-02-07T02:58:59.156Z,35.88
2019-02-07T03:00:06.728Z,36.35
2019-02-07T03:01:31.555Z,35.05
2019-02-07T03:02:54.193Z,34.60
2019-02-07T03:04:17.903Z,36.10
2019-02-07T03:05:33.984Z,35.65
2019-02-07T03:06:50.796Z,33.98
2019-02-07T03:08:13.369Z,35.90
2019-02-07T03:09:37.141Z,33.65
2019-02-07T03:10:56.587Z,34.15
2019-02-07T03:12:38.797Z,35.35
2019-02-07T03:14:17.588Z,34.48
2019-02-07T03:15:49.095Z,33.65
2019-02-07T03:17:05.316Z,36.28
2019-02-07T03:18:36.930Z,35.10
2019-02-07T03:19:54.986Z,34.45
2019-02-07T03:21:19.339Z,36.13
2019-02-07T03:22:41.744Z,35.85
2019-02-07T03:24:03.643Z,34.63
2019-02-07T03:25:26.500Z,36.03
2019-02-07T03:26:42.955Z,36.80
2019-02-07T03:28:13.376Z,36.88
2019-02-07T03:29:49.239Z,36.42
2019-02-07T03:31:22.327Z,35.55
2019-02-07T03:32:46.151Z,34.98
2019-02-07T03:34:18.821Z,37.10
2019-02-07T03:35:48.230Z,36.08
2019-02-07T03:37:08.705Z,34.48
2019-02-07T03:38:22.619Z,35.23
2019-02-07T03:39:45.038Z,34.43
2019-02-07T03:41:14.453Z,35.65
2019-02-07T03:42:36.589Z,34.60
2019-02-07T03:43:57.989Z,35.23
2019-02-07T03:45:31.297Z,35.52
2019-02-07T03:46:51.841Z,36.33
2019-02-07T03:48:07.988Z,36.40
2019-02-07T03:49:32.523Z,37.50
2019-02-07T03:50:56.376Z,36.42
2019-02-07T03:52:26.287Z,36.90
2019-02-07T03:53:59.060Z,36.05
2019-02-07T03:55:20.446Z,35.55
2019-02-07T03:56:43.752Z,36.83
2019-02-07T03:58:18.442Z,35.28
2019-02-07T03:59:48.262Z,37.05
2019-02-07T04:01:02.628Z,36.03
2019-02-07T04:02:31.112Z,37.90
2019-02-07T04:03:53.261Z,35.75
2019-02-07T04:05:15.623Z,37.17
2019-02-07T04:06:45.112Z,37.17
2019-02-07T04:08:04.218Z,34.55
2019-02-07T04:09:27.729Z,37.08
2019-02-07T04:10:58.508Z,36.00
2019-02-07T04:12:37.069Z,35.33
2019-02-07T04:13:56.599Z,35.17
2019-02-07T04:15:18.979Z,35.73
2019-02-07T04:16:37.160Z,37.28
2019-02-07T04:18:00.962Z,35.10
2019-02-07T04:19:28.549Z,35.30
2019-02-07T04:20:43.576Z,36.20
2019-02-07T04:22:06.088Z,38.02
2019-02-07T04:23:22.640Z,36.90
2019-02-07T04:24:46.534Z,37.75
2019-02-07T04:26:19.064Z,35.78
2019-02-07T04:27:51.684Z,34.20
2019-02-07T04:29:30.548Z,38.35
2019-02-07T04:31:12.244Z,36.03
2019-02-07T04:32:32.673Z,34.40
2019-02-07T04:33:56.409Z,35.58
2019-02-07T04:35:24.073Z,36.13
2019-02-07T04:37:02.744Z,36.35
2019-02-07T04:38:35.497Z,35.63
2019-02-07T04:39:55.172Z,35.15
2019-02-07T04:41:21.842Z,37.40
2019-02-07T04:42:40.980Z,36.42
2019-02-07T04:44:13.623Z,36.95
2019-02-07T04:45:55.420Z,37.50
2019-02-07T04:47:34.533Z,37.10
2019-02-07T04:48:47.960Z,36.05
2019-02-07T04:50:18.868Z,36.33
2019-02-07T04:51:45.524Z,36.48
2019-02-07T04:53:09.574Z,37.25
2019-02-07T04:54:29.127Z,37.35
2019-02-07T04:55:55.540Z,36.00
2019-02-07T04:57:19.116Z,35.80
2019-02-07T04:58:43.265Z,37.10
2019-02-07T05:00:09.937Z,37.00
2019-02-07T05:01:37.277Z,36.42
2019-02-07T05:03:00.908Z,37.95
2019-02-07T05:04:23.724Z,35.55
2019-02-07T05:05:50.733Z,36.88
2019-02-07T05:07:26.849Z,37.60
2019-02-07T05:08:50.584Z,38.30
2019-02-07T05:10:14.343Z,37.63
2019-02-07T05:11:36.690Z,39.10
2019-02-07T05:12:57.614Z,37.10
2019-02-07T05:14:36.527Z,37.05
2019-02-07T05:15:58.662Z,37.03
2019-02-07T05:17:22.598Z,38.55
2019-02-07T05:18:44.906Z,37.83
2019-02-07T05:20:07.420Z,38.67
2019-02-07T05:21:39.021Z,37.55
2019-02-07T05:23:06.098Z,39.45
2019-02-07T05:24:30.041Z,40.70
2019-02-07T05:26:08.731Z,39.63
2019-02-07T05:27:26.474Z,40.08
2019-02-07T05:28:56.225Z,39.05
2019-02-07T05:30:18.020Z,38.67
2019-02-07T05:31:37.640Z,39.15
2019-02-07T05:33:01.583Z,37.58
2019-02-07T05:34:22.320Z,39.00
2019-02-07T05:35:48.877Z,40.03
2019-02-07T05:37:21.643Z,38.08
2019-02-07T05:38:51.262Z,37.60
2019-02-07T05:40:24.455Z,40.80
2019-02-07T05:41:48.469Z,40.80
2019-02-07T05:43:10.930Z,41.83
2019-02-07T05:44:26.770Z,40.38
2019-02-07T05:45:50.644Z,38.08
2019-02-07T05:47:13.356Z,40.12
2019-02-07T05:48:46.347Z,38.40
2019-02-07T05:50:15.939Z,38.13
2019-02-07T05:51:38.944Z,37.23
2019-02-07T05:53:03.042Z,39.27
2019-02-07T05:54:42.219Z,40.75
2019-02-07T05:56:06.257Z,39.48
2019-02-07T05:57:24.201Z,39.78
2019-02-07T05:58:59.966Z,39.40
2019-02-07T06:00:25.773Z,38.58
2019-02-07T06:01:52.551Z,39.80
2019-02-07T06:03:19.744Z,41.18
2019-02-07T06:04:55.734Z,40.50
2019-02-07T06:06:18.107Z,40.17
2019-02-07T06:07:50.906Z,41.23
2019-02-07T06:09:26.807Z,40.50
2019-02-07T06:10:43.782Z,39.60
2019-02-07T06:12:06.435Z,40.73
2019-02-07T06:13:30.117Z,42.75
2019-02-07T06:14:51.409Z,41.70
2019-02-07T06:16:17.333Z,44.05
2019-02-07T06:17:59.300Z,43.25
2019-02-07T06:19:23.382Z,42.62
2019-02-07T06:21:05.476Z,43.48
2019-02-07T06:22:18.150Z,43.92
2019-02-07T06:23:42.878Z,43.78
2019-02-07T06:25:05.651Z,43.85
2019-02-07T06:26:29.414Z,45.40
2019-02-07T06:27:52.248Z,43.68
2019-02-07T06:29:14.341Z,45.48
2019-02-07T06:30:44.424Z,45.15
2019-02-07T06:32:07.154Z,44.73
2019-02-07T06:33:36.849Z,43.55
2019-02-07T06:35:03.240Z,44.83
2019-02-07T06:36:30.189Z,44.85
2019-02-07T06:37:46.843Z,44.60
2019-02-07T06:39:09.628Z,45.30
2019-02-07T06:40:51.783Z,43.92
2019-02-07T06:42:18.789Z,44.48
2019-02-07T06:43:54.834Z,43.35
2019-02-07T06:45:33.943Z,44.70
2019-02-07T06:46:57.678Z,45.50
2019-02-07T06:48:21.321Z,46.55
2019-02-07T06:49:48.185Z,47.70
2019-02-07T06:51:12.029Z,47.90
2019-02-07T06:52:45.069Z,49.75
2019-02-07T06:54:07.650Z,48.40
2019-02-07T06:55:40.677Z,47.15
2019-02-07T06:57:03.213Z,44.53
2019-02-07T06:58:26.002Z,45.23
2019-02-07T07:00:01.601Z,45.95
2019-02-07T07:01:27.409Z,46.60
2019-02-07T07:02:57.620Z,43.90
2019-02-07T07:04:12.123Z,46.30
2019-02-07T07:05:41.690Z,45.80
2019-02-07T07:06:56.173Z,44.73
2019-02-07T07:08:19.229Z,46.48
2019-02-07T07:09:41.549Z,45.33
2019-02-07T07:11:11.174Z,46.20
2019-02-07T07:12:33.469Z,43.48
2019-02-07T07:13:56.061Z,43.83
2019-02-07T07:15:10.195Z,45.92
2019-02-07T07:16:42.961Z,45.05
2019-02-07T07:18:08.693Z,44.42
2019-02-07T07:19:44.440Z,45.38
2019-02-07T07:21:08.271Z,43.52
2019-02-07T07:22:38.132Z,44.50
2019-02-07T07:24:14.138Z,41.00
2019-02-07T07:25:53.253Z,44.25
2019-02-07T07:27:23.464Z,41.95
2019-02-07T07:28:45.941Z,40.40
2019-02-07T07:30:12.710Z,43.50
2019-02-07T07:31:35.598Z,41.40
2019-02-07T07:32:59.483Z,41.50
2019-02-07T07:34:25.408Z,40.70
2019-02-07T07:35:52.024Z,41.00
2019-02-07T07:37:16.718Z,43.78
2019-02-07T07:38:40.525Z,42.88
2019-02-07T07:40:02.940Z,42.90
2019-02-07T07:41:25.889Z,41.15
2019-02-07T07:42:48.575Z,41.88
2019-02-07T07:44:09.742Z,38.73
2019-02-07T07:45:35.009Z,40.85
2019-02-07T07:46:53.360Z,40.05
2019-02-07T07:48:32.433Z,41.42
2019-02-07T07:50:02.330Z,39.10
2019-02-07T07:51:29.221Z,38.92
2019-02-07T07:52:51.845Z,39.48
2019-02-07T07:54:21.374Z,37.75
2019-02-07T07:55:45.586Z,38.83
2019-02-07T07:57:15.626Z,38.95
2019-02-07T07:58:45.250Z,37.63
2019-02-07T08:00:19.128Z,36.75
2019-02-07T08:01:42.671Z,36.10
2019-02-07T08:03:12.750Z,38.53
2019-02-07T08:04:38.222Z,37.73
2019-02-07T08:05:53.509Z,36.98
2019-02-07T08:07:08.839Z,37.98
2019-02-07T08:08:31.280Z,39.13
2019-02-07T08:09:55.264Z,38.35
2019-02-07T08:11:31.212Z,37.45
2019-02-07T08:13:02.710Z,35.25
2019-02-07T08:14:24.763Z,37.35
2019-02-07T08:15:47.159Z,36.80
2019-02-07T08:17:05.506Z,38.13
2019-02-07T08:18:29.534Z,37.48
2019-02-07T08:19:55.934Z,35.75
2019-02-07T08:21:18.347Z,35.28
2019-02-07T08:22:40.982Z,36.17
2019-02-07T08:24:03.646Z,37.73
2019-02-07T08:25:23.935Z,35.48
2019-02-07T08:26:56.658Z,37.17
2019-02-07T08:28:20.589Z,35.17
2019-02-07T08:29:44.676Z,36.28
2019-02-07T08:31:05.061Z,35.48
2019-02-07T08:32:28.595Z,34.03
2019-02-07T08:34:05.000Z,36.38
2019-02-07T08:35:29.398Z,34.23
2019-02-07T08:36:56.933Z,33.48
2019-02-07T08:38:17.477Z,32.93
2019-02-07T08:39:46.723Z,37.13
2019-02-07T08:41:17.336Z,34.35
2019-02-07T08:42:42.582Z,34.38
2019-02-07T08:44:06.503Z,35.03
2019-02-07T08:45:44.587Z,35.73
2019-02-07T08:47:23.821Z,34.78
2019-02-07T08:48:53.184Z,33.75
2019-02-07T08:50:05.406Z,35.33
2019-02-07T08:51:32.583Z,33.00
2019-02-07T08:52:55.452Z,32.17
2019-02-07T08:54:20.469Z,31.90
2019-02-07T08:55:49.784Z,32.58
2019-02-07T08:57:12.546Z,32.35
2019-02-07T08:58:42.239Z,32.45
2019-02-07T09:00:00.003Z,32.25
2019-02-07T09:01:29.906Z,33.28
2019-02-07T09:02:52.288Z,31.80
2019-02-07T09:04:25.292Z,31.73
2019-02-07T09:05:49.077Z,29.98
2019-02-07T09:07:15.654Z,30.77
2019-02-07T09:08:42.466Z,31.75
2019-02-07T09:10:12.113Z,29.80
2019-02-07T09:11:34.717Z,33.25
2019-02-07T09:12:55.274Z,30.80
2019-02-07T09:14:32.015Z,31.80
2019-02-07T09:16:02.572Z,30.88
2019-02-07T09:17:22.717Z,30.08
2019-02-07T09:18:58.744Z,30.10
2019-02-07T09:20:15.034Z,30.95
2019-02-07T09:21:38.332Z,31.73
2019-02-07T09:23:05.070Z,32.03
2019-02-07T09:24:38.370Z,33.92
2019-02-07T09:26:01.732Z,32.00
2019-02-07T09:27:28.878Z,29.75
2019-02-07T09:28:51.220Z,30.85
2019-02-07T09:30:30.339Z,30.62
2019-02-07T09:32:12.852Z,31.48
2019-02-07T09:33:36.711Z,32.63
2019-02-07T09:34:54.911Z,30.10
2019-02-07T09:36:17.392Z,29.60
2019-02-07T09:37:45.623Z,28.60
2019-02-07T09:39:15.576Z,26.40
2019-02-07T09:40:49.116Z,26.97
2019-02-07T09:42:12.935Z,25.92
2019-02-07T09:43:35.737Z,27.17
2019-02-07T09:45:02.021Z,25.30
2019-02-07T09:46:25.125Z,26.70
2019-02-07T09:47:57.537Z,26.17
2019-02-07T09:49:19.991Z,27.10
2019-02-07T09:50:36.160Z,23.83
2019-02-07T09:51:53.188Z,25.05
2019-02-07T09:53:10.720Z,24.98
2019-02-07T09:54:34.618Z,24.27
2019-02-07T09:56:01.176Z,25.10
2019-02-07T09:57:31.197Z,25.65
2019-02-07T09:58:48.356Z,26.02
2019-02-07T10:00:12.209Z,25.30
2019-02-07T10:01:41.709Z,25.60
2019-02-07T10:02:53.684Z,27.27
2019-02-07T10:04:21.913Z,25.60
2019-02-07T10:06:04.029Z,26.45
2019-02-07T10:07:34.031Z,26.23
2019-02-07T10:08:56.855Z,25.55
2019-02-07T10:10:32.736Z,25.25
2019-02-07T10:12:02.783Z,25.62
2019-02-07T10:13:38.630Z,25.08
2019-02-07T10:15:08.670Z,24.43
2019-02-07T10:16:24.861Z,24.95
2019-02-07T10:18:06.684Z,25.48
2019-02-07T10:19:35.347Z,25.92
2019-02-07T10:21:00.803Z,25.70
2019-02-07T10:22:28.796Z,25.95
2019-02-07T10:23:51.950Z,25.92
2019-02-07T10:25:28.460Z,25.60
2019-02-07T10:26:46.582Z,25.30
2019-02-07T10:28:08.978Z,26.10
2019-02-07T10:29:22.428Z,25.80
2019-02-07T10:30:47.389Z,26.60
2019-02-07T10:32:10.445Z,26.00
2019-02-07T10:33:40.546Z,27.62
2019-02-07T10:34:56.865Z,25.97
2019-02-07T10:36:21.229Z,28.07
2019-02-07T10:37:45.435Z,25.32
2019-02-07T10:39:12.220Z,27.52
2019-02-07T10:40:35.234Z,27.87
2019-02-07T10:42:05.114Z,29.30
2019-02-07T10:43:35.303Z,30.02
2019-02-07T10:44:59.427Z,28.45
2019-02-07T10:46:41.160Z,30.02
2019-02-07T10:48:13.871Z,26.97
2019-02-07T10:49:47.051Z,27.55
2019-02-07T10:51:27.266Z,29.12
2019-02-07T10:52:48.027Z,26.90
2019-02-07T10:54:14.725Z,28.35
2019-02-07T10:55:39.752Z,27.62
2019-02-07T10:57:15.470Z,29.67
2019-02-07T10:58:42.177Z,28.32
2019-02-07T11:00:07.621Z,28.20
2019-02-07T11:01:42.174Z,27.75
2019-02-07T11:03:05.479Z,24.57
2019-02-07T11:04:31.340Z,25.45
2019-02-07T11:05:54.608Z,23.75
2019-02-07T11:07:16.755Z,23.45
2019-02-07T11:08:39.395Z,21.62
2019-02-07T11:10:02.216Z,24.30
2019-02-07T11:11:41.393Z,22.00
2019-02-07T11:13:01.119Z,22.70
2019-02-07T11:14:18.031Z,21.27
2019-02-07T11:15:44.713Z,22.10
2019-02-07T11:17:13.352Z,24.12
2019-02-07T11:18:42.860Z,24.90
2019-02-07T11:20:06.922Z,24.14
2019-02-07T11:21:46.240Z,25.77
2019-02-07T11:23:12.840Z,26.07
2019-02-07T11:24:30.836Z,24.92
2019-02-07T11:26:06.912Z,25.40
2019-02-07T11:27:21.135Z,25.48
2019-02-07T11:28:43.696Z,25.92
2019-02-07T11:30:13.574Z,24.10
2019-02-07T11:31:52.321Z,24.20
2019-02-07T11:33:22.217Z,22.90
2019-02-07T11:35:01.641Z,24.52
2019-02-07T11:36:25.735Z,23.35
2019-02-07T11:38:01.668Z,24.20
2019-02-07T11:39:41.949Z,23.10
2019-02-07T11:41:08.293Z,23.02
2019-02-07T11:42:32.603Z,25.17
2019-02-07T11:43:55.439Z,24.80
2019-02-07T11:45:19.267Z,25.43
2019-02-07T11:46:42.305Z,24.70
2019-02-07T11:48:00.824Z,25.82
2019-02-07T11:49:27.441Z,25.60
2019-02-07T11:51:03.647Z,25.45
2019-02-07T11:52:33.476Z,24.50
2019-02-07T11:53:55.511Z,23.85
2019-02-07T11:55:17.304Z,25.77
2019-02-07T11:56:29.253Z,24.80
2019-02-07T11:57:51.541Z,22.60
2019-02-07T11:59:21.442Z,24.07
2019-02-07T12:00:49.805Z,22.70
2019-02-07T12:02:09.707Z,21.70
2019-02-07T12:03:31.936Z,22.98
2019-02-07T12:04:56.814Z,22.45
2019-02-07T12:06:23.516Z,22.82
2019-02-07T12:07:50.557Z,22.42
2019-02-07T12:09:15.174Z,24.45
2019-02-07T12:10:52.873Z,21.33
2019-02-07T12:12:22.707Z,22.75
2019-02-07T12:13:45.926Z,21.65
2019-02-07T12:15:12.615Z,24.05
2019-02-07T12:16:44.203Z,20.50
2019-02-07T12:18:24.231Z,22.60
2019-02-07T12:19:53.349Z,23.40
2019-02-07T12:21:26.297Z,21.97
2019-02-07T12:23:08.434Z,23.02
2019-02-07T12:24:36.456Z,22.77
2019-02-07T12:25:49.818Z,22.27
2019-02-07T12:27:23.973Z,21.45
2019-02-07T12:28:47.893Z,20.62
2019-02-07T12:30:19.704Z,20.10
2019-02-07T12:31:38.595Z,20.37
2019-02-07T12:32:54.183Z,20.48
2019-02-07T12:34:17.931Z,21.93
2019-02-07T12:35:56.726Z,20.77
2019-02-07T12:37:18.955Z,18.40
2019-02-07T12:38:48.313Z,19.70
2019-02-07T12:40:12.233Z,20.50
2019-02-07T12:41:41.875Z,19.15
2019-02-07T12:43:11.607Z,21.85
2019-02-07T12:44:37.892Z,22.30
2019-02-07T12:46:07.629Z,24.95
2019-02-07T12:47:30.245Z,26.37
2019-02-07T12:48:53.973Z,27.52
2019-02-07T12:50:20.763Z,27.90
2019-02-07T12:51:34.007Z,29.95
2019-02-07T12:53:08.977Z,25.52
2019-02-07T12:54:22.159Z,25.32
2019-02-07T12:56:03.953Z,25.80
2019-02-07T12:57:40.243Z,24.55
2019-02-07T12:59:30.226Z,26.87
2019-02-07T13:00:52.388Z,24.10
2019-02-07T13:02:15.198Z,24.15
2019-02-07T13:03:37.581Z,26.07
2019-02-07T13:05:04.393Z,27.30
2019-02-07T13:06:32.009Z,28.17
2019-02-07T13:07:55.798Z,29.72
2019-02-07T13:09:17.143Z,26.65
2019-02-07T13:10:39.846Z,28.25
2019-02-07T13:12:21.999Z,27.37
2019-02-07T13:13:56.152Z,24.43
2019-02-07T13:15:18.922Z,24.20
2019-02-07T13:16:41.475Z,24.05
2019-02-07T13:18:08.198Z,24.82
2019-02-07T13:19:24.100Z,24.52
2019-02-07T13:20:50.688Z,24.57
2019-02-07T13:22:13.343Z,24.98
2019-02-07T13:23:41.661Z,26.68
2019-02-07T13:25:11.483Z,27.00
2019-02-07T13:26:30.137Z,26.35
2019-02-07T13:27:52.611Z,30.10
2019-02-07T13:29:14.848Z,28.07
2019-02-07T13:30:54.702Z,26.30
2019-02-07T13:32:25.606Z,25.15
2019-02-07T13:33:42.775Z,25.48
2019-02-07T13:35:14.354Z,28.35
2019-02-07T13:36:35.795Z,26.80
2019-02-07T13:38:05.255Z,27.20
2019-02-07T13:39:21.096Z,26.85
2019-02-07T13:40:43.520Z,28.90
2019-02-07T13:42:07.476Z,25.57
2019-02-07T13:43:26.589Z,26.17
2019-02-07T13:44:50.118Z,27.00
2019-02-07T13:46:29.834Z,26.37
2019-02-07T13:47:49.685Z,27.55
2019-02-07T13:49:13.674Z,25.85
2019-02-07T13:50:49.977Z,24.92
2019-02-07T13:52:14.167Z,25.32
2019-02-07T13:53:38.635Z,26.75
2019-02-07T13:55:05.029Z,26.07
2019-02-07T13:56:27.196Z,25.05
2019-02-07T13:57:54.115Z,25.95
2019-02-07T13:59:17.205Z,24.75
2019-02-07T14:00:56.050Z,27.00
2019-02-07T14:02:37.880Z,24.67
2019-02-07T14:04:01.706Z,27.15
2019-02-07T14:05:26.840Z,27.65
2019-02-07T14:06:46.618Z,25.62
2019-02-07T14:08:38.202Z,27.58
2019-02-07T14:09:42.528Z,25.57
2019-02-07T14:11:21.058Z,28.47
2019-02-07T14:12:44.928Z,25.90
2019-02-07T14:14:14.791Z,27.52
2019-02-07T14:15:41.824Z,28.32
2019-02-07T14:17:14.329Z,25.50
2019-02-07T14:18:40.916Z,25.77
2019-02-07T14:20:03.830Z,26.70
2019-02-07T14:21:29.068Z,28.05
2019-02-07T14:23:04.749Z,26.42
2019-02-07T14:24:27.561Z,25.75
2019-02-07T14:25:57.621Z,26.50
2019-02-07T14:27:29.950Z,26.07
2019-02-07T14:28:47.501Z,26.70
2019-02-07T14:30:20.833Z,26.68
2019-02-07T14:31:47.234Z,25.85
2019-02-07T14:33:23.402Z,26.93
2019-02-07T14:34:50.678Z,26.27
2019-02-07T14:36:13.316Z,24.95
2019-02-07T14:37:37.288Z,25.85
2019-02-07T14:38:59.712Z,25.95
2019-02-07T14:40:24.654Z,25.72
2019-02-07T14:41:54.303Z,26.25
2019-02-07T14:43:18.136Z,24.32
2019-02-07T14:44:40.373Z,25.20
2019-02-07T14:45:57.748Z,24.50
2019-02-07T14:47:02.972Z,25.32
2019-02-07T14:48:09.532Z,25.10
2019-02-07T14:49:14.485Z,24.90
2019-02-07T14:50:20.247Z,26.02
2019-02-07T14:51:25.220Z,25.70
2019-02-07T14:52:30.328Z,25.60
2019-02-07T14:53:35.160Z,25.40
2019-02-07T14:54:40.063Z,25.77
2019-02-07T14:55:44.946Z,25.15
2019-02-07T14:56:49.938Z,24.90
2019-02-07T14:57:54.883Z,25.75
2019-02-07T14:59:01.416Z,24.45
2019-02-07T15:00:11.240Z,24.05
2019-02-07T15:01:16.291Z,25.08
2019-02-07T15:02:21.210Z,26.10
2019-02-07T15:03:26.045Z,23.98
2019-02-07T15:04:31.170Z,26.40
2019-02-07T15:05:36.213Z,24.55
2019-02-07T15:06:41.652Z,25.55
2019-02-07T15:07:47.072Z,25.65
2019-02-07T15:08:51.868Z,24.43
2019-02-07T15:09:56.615Z,26.02
2019-02-07T15:11:01.367Z,25.62
2019-02-07T15:12:06.394Z,27.65
2019-02-07T15:13:11.242Z,26.50
2019-02-07T15:14:16.125Z,27.70
2019-02-07T15:15:21.841Z,27.07
2019-02-07T15:16:26.600Z,28.15
2019-02-07T15:17:32.568Z,27.45
2019-02-07T15:18:37.690Z,29.55
2019-02-07T15:19:42.561Z,28.80
2019-02-07T15:20:48.350Z,28.15
2019-02-07T15:21:53.121Z,28.23
2019-02-07T15:22:57.945Z,29.27
2019-02-07T15:24:02.733Z,29.63
2019-02-07T15:25:07.827Z,30.23
2019-02-07T15:26:13.097Z,30.25
2019-02-07T15:27:18.514Z,29.87
2019-02-07T15:28:23.330Z,30.97
2019-02-07T15:29:28.727Z,30.32
2019-02-07T15:30:34.424Z,29.57
2019-02-07T15:31:39.331Z,32.25
2019-02-07T15:32:44.088Z,34.63
2019-02-07T15:33:48.897Z,39.15
2019-02-07T15:34:54.076Z,54.03
2019-02-07T15:35:59.052Z,46.55
2019-02-07T15:37:03.810Z,86.10
2019-02-07T15:38:08.800Z,55.08
2019-02-07T15:39:16.487Z,69.12
2019-02-07T15:40:25.448Z,114.90
2019-02-07T15:41:29.186Z,104.25
2019-02-07T15:42:34.078Z,62.13
2019-02-07T15:43:39.056Z,68.05
2019-02-07T15:44:43.849Z,117.28
2019-02-07T15:45:48.721Z,149.18
2019-02-07T15:46:53.963Z,124.60
2019-02-07T15:47:58.810Z,126.38
2019-02-07T15:49:03.650Z,53.42
2019-02-07T15:50:14.325Z,151.25
2019-02-07T15:51:19.448Z,112.25
2019-02-07T15:52:24.307Z,184.97
2019-02-07T15:53:29.072Z,187.43
2019-02-07T15:54:34.073Z,64.77
2019-02-07T15:55:39.055Z,72.47
2019-02-07T15:56:46.330Z,166.60
2019-02-07T15:57:51.484Z,141.35
2019-02-07T15:59:15.328Z,138.70
2019-02-07T16:02:52.689Z,148.13
2019-02-07T16:04:18.828Z,125.55
2019-02-07T16:05:24.140Z,131.05
2019-02-07T16:06:29.292Z,130.82
2019-02-07T16:07:34.355Z,127.25
2019-02-07T16:08:39.203Z,91.20
2019-02-07T16:09:44.000Z,110.03
2019-02-07T16:10:48.954Z,72.40
2019-02-07T16:11:53.813Z,84.45
2019-02-07T16:12:58.598Z,90.40
2019-02-07T16:14:03.368Z,91.15
2019-02-07T16:15:09.052Z,99.87
2019-02-07T16:16:14.034Z,107.32
2019-02-07T16:17:18.815Z,97.35
2019-02-07T16:18:23.701Z,57.23
2019-02-07T16:19:28.618Z,76.12
2019-02-07T16:20:33.599Z,56.55
2019-02-07T16:21:38.626Z,95.50
2019-02-07T16:22:43.745Z,55.30
2019-02-07T16:23:48.704Z,61.77
2019-02-07T16:24:53.900Z,51.45
2019-02-07T16:25:59.356Z,51.33
2019-02-07T16:27:05.030Z,47.88
2019-02-07T16:28:10.147Z,44.67
2019-02-07T16:29:15.263Z,44.75
2019-02-07T16:30:21.106Z,44.05
2019-02-07T16:31:26.144Z,41.50
2019-02-07T16:32:31.208Z,45.85
2019-02-07T16:33:36.318Z,44.33
2019-02-07T16:34:41.822Z,41.30
2019-02-07T16:35:46.792Z,42.50
2019-02-07T16:36:51.680Z,41.23
2019-02-07T16:37:56.985Z,39.88
2019-02-07T16:39:02.104Z,39.05
2019-02-07T16:40:08.242Z,42.43
2019-02-07T16:41:13.133Z,40.83
2019-02-07T16:42:17.933Z,40.20
2019-02-07T16:43:22.846Z,41.75
2019-02-07T16:44:27.683Z,41.60
2019-02-07T16:45:32.568Z,44.27
2019-02-07T16:46:37.800Z,45.52
2019-02-07T16:47:42.782Z,43.87
2019-02-07T16:48:47.633Z,43.92
2019-02-07T16:49:52.912Z,44.60
2019-02-07T16:51:00.227Z,43.73
2019-02-07T16:52:04.458Z,43.70
2019-02-07T16:53:09.438Z,43.30
2019-02-07T16:54:14.435Z,42.73
2019-02-07T16:55:19.500Z,43.45
2019-02-07T16:56:24.991Z,42.35
2019-02-07T16:57:29.858Z,41.42